sensor_id;sensor_type;location;lat;lon;timestamp;P1;durP1;ratioP1;P2;durP2;ratioP2
76459;SDS011;65299;46.084;18.762;2023-05-10T00:00:50;7.83;;;4.47;;
76459;SDS011;65299;46.084;18.762;2023-05-10T00:03:50;7.75;;;4.70;;
76459;SDS011;65299;46.084;18.762;2023-05-10T00:06:51;7.30;;;4.90;;
76459;SDS011;65299;46.084;18.762;2023-05-10T00:09:51;7.30;;;4.60;;
76459;SDS011;65299;46.084;18.762;2023-05-10T00:12:51;8.97;;;5.13;;
76459;SDS011;65299;46.084;18.762;2023-05-10T00:15:52;11.53;;;5.17;;
76459;SDS011;65299;46.084;18.762;2023-05-10T00:18:53;8.25;;;5.30;;
76459;SDS011;65299;46.084;18.762;2023-05-10T00:21:53;10.33;;;5.73;;
76459;SDS011;65299;46.084;18.762;2023-05-10T00:24:54;9.07;;;5.60;;
76459;SDS011;65299;46.084;18.762;2023-05-10T00:27:54;9.10;;;5.90;;
76459;SDS011;65299;46.084;18.762;2023-05-10T00:30:57;11.93;;;6.25;;
76459;SDS011;65299;46.084;18.762;2023-05-10T00:33:58;9.73;;;6.27;;
76459;SDS011;65299;46.084;18.762;2023-05-10T00:36:58;10.40;;;6.13;;
76459;SDS011;65299;46.084;18.762;2023-05-10T00:39:58;9.93;;;6.23;;
76459;SDS011;65299;46.084;18.762;2023-05-10T00:42:59;10.45;;;6.18;;
76459;SDS011;65299;46.084;18.762;2023-05-10T00:46:01;9.93;;;5.90;;
76459;SDS011;65299;46.084;18.762;2023-05-10T00:49:01;11.50;;;6.27;;
76459;SDS011;65299;46.084;18.762;2023-05-10T00:52:02;12.50;;;6.63;;
76459;SDS011;65299;46.084;18.762;2023-05-10T00:55:03;10.10;;;6.30;;
76459;SDS011;65299;46.084;18.762;2023-05-10T00:58:04;11.48;;;6.38;;
76459;SDS011;65299;46.084;18.762;2023-05-10T01:01:05;10.35;;;6.35;;
76459;SDS011;65299;46.084;18.762;2023-05-10T01:04:06;10.20;;;6.30;;
76459;SDS011;65299;46.084;18.762;2023-05-10T01:07:07;10.85;;;6.53;;
76459;SDS011;65299;46.084;18.762;2023-05-10T01:10:08;9.30;;;6.00;;
76459;SDS011;65299;46.084;18.762;2023-05-10T01:13:09;9.38;;;6.10;;
76459;SDS011;65299;46.084;18.762;2023-05-10T01:16:09;10.23;;;6.65;;
76459;SDS011;65299;46.084;18.762;2023-05-10T01:19:20;11.60;;;6.23;;
76459;SDS011;65299;46.084;18.762;2023-05-10T01:36:13;11.30;;;6.35;;
76459;SDS011;65299;46.084;18.762;2023-05-10T01:40:09;15.82;;;7.40;;
76459;SDS011;65299;46.084;18.762;2023-05-10T01:42:53;12.07;;;6.72;;
76459;SDS011;65299;46.084;18.762;2023-05-10T01:46:05;12.73;;;8.17;;
76459;SDS011;65299;46.084;18.762;2023-05-10T01:49:16;13.48;;;8.40;;
76459;SDS011;65299;46.084;18.762;2023-05-10T01:52:31;16.75;;;8.57;;
76459;SDS011;65299;46.084;18.762;2023-05-10T01:55:44;12.98;;;7.55;;
76459;SDS011;65299;46.084;18.762;2023-05-10T01:58:47;12.65;;;7.63;;
76459;SDS011;65299;46.084;18.762;2023-05-10T02:01:49;14.33;;;8.03;;
76459;SDS011;65299;46.084;18.762;2023-05-10T02:04:52;15.35;;;7.85;;
76459;SDS011;65299;46.084;18.762;2023-05-10T02:07:53;12.77;;;7.50;;
76459;SDS011;65299;46.084;18.762;2023-05-10T02:10:54;14.38;;;7.63;;
76459;SDS011;65299;46.084;18.762;2023-05-10T02:13:56;15.67;;;8.33;;
76459;SDS011;65299;46.084;18.762;2023-05-10T02:16:58;15.63;;;8.15;;
76459;SDS011;65299;46.084;18.762;2023-05-10T02:20:00;11.43;;;7.57;;
76459;SDS011;65299;46.084;18.762;2023-05-10T02:23:02;12.13;;;7.97;;
76459;SDS011;65299;46.084;18.762;2023-05-10T02:26:03;14.55;;;8.27;;
76459;SDS011;65299;46.084;18.762;2023-05-10T02:29:05;13.00;;;8.63;;
76459;SDS011;65299;46.084;18.762;2023-05-10T02:32:08;15.55;;;8.88;;
76459;SDS011;65299;46.084;18.762;2023-05-10T02:35:11;13.63;;;8.50;;
76459;SDS011;65299;46.084;18.762;2023-05-10T02:38:13;15.68;;;8.73;;
76459;SDS011;65299;46.084;18.762;2023-05-10T02:41:15;13.02;;;8.52;;
76459;SDS011;65299;46.084;18.762;2023-05-10T02:44:19;15.53;;;9.60;;
76459;SDS011;65299;46.084;18.762;2023-05-10T02:47:22;15.60;;;9.32;;
76459;SDS011;65299;46.084;18.762;2023-05-10T02:50:23;14.67;;;8.97;;
76459;SDS011;65299;46.084;18.762;2023-05-10T02:53:31;15.23;;;9.73;;
76459;SDS011;65299;46.084;18.762;2023-05-10T02:56:34;15.90;;;9.57;;
76459;SDS011;65299;46.084;18.762;2023-05-10T02:59:39;13.80;;;9.32;;
76459;SDS011;65299;46.084;18.762;2023-05-10T03:02:40;17.97;;;9.73;;
76459;SDS011;65299;46.084;18.762;2023-05-10T03:05:40;18.48;;;9.52;;
76459;SDS011;65299;46.084;18.762;2023-05-10T03:08:40;17.93;;;10.10;;
76459;SDS011;65299;46.084;18.762;2023-05-10T03:15:07;18.23;;;10.75;;
76459;SDS011;65299;46.084;18.762;2023-05-10T03:18:45;18.55;;;10.23;;
76459;SDS011;65299;46.084;18.762;2023-05-10T03:21:49;17.17;;;9.27;;
76459;SDS011;65299;46.084;18.762;2023-05-10T03:24:55;16.60;;;9.00;;
76459;SDS011;65299;46.084;18.762;2023-05-10T03:28:01;18.00;;;9.73;;
76459;SDS011;65299;46.084;18.762;2023-05-10T03:31:04;16.92;;;9.95;;
76459;SDS011;65299;46.084;18.762;2023-05-10T03:34:05;19.45;;;9.38;;
76459;SDS011;65299;46.084;18.762;2023-05-10T03:37:06;15.50;;;9.40;;
76459;SDS011;65299;46.084;18.762;2023-05-10T03:40:07;14.23;;;9.43;;
76459;SDS011;65299;46.084;18.762;2023-05-10T03:43:08;14.80;;;8.77;;
76459;SDS011;65299;46.084;18.762;2023-05-10T03:46:09;15.02;;;9.73;;
76459;SDS011;65299;46.084;18.762;2023-05-10T03:49:09;16.40;;;9.20;;
76459;SDS011;65299;46.084;18.762;2023-05-10T03:52:10;16.73;;;8.83;;
76459;SDS011;65299;46.084;18.762;2023-05-10T03:55:10;13.10;;;8.57;;
76459;SDS011;65299;46.084;18.762;2023-05-10T03:58:11;15.73;;;7.80;;
76459;SDS011;65299;46.084;18.762;2023-05-10T04:01:12;12.55;;;7.90;;
76459;SDS011;65299;46.084;18.762;2023-05-10T04:04:12;12.60;;;7.30;;
76459;SDS011;65299;46.084;18.762;2023-05-10T04:07:13;11.97;;;7.27;;
76459;SDS011;65299;46.084;18.762;2023-05-10T04:10:13;11.63;;;7.45;;
76459;SDS011;65299;46.084;18.762;2023-05-10T04:13:16;11.02;;;7.40;;
76459;SDS011;65299;46.084;18.762;2023-05-10T04:16:16;13.77;;;7.20;;
76459;SDS011;65299;46.084;18.762;2023-05-10T04:19:16;9.87;;;6.37;;
76459;SDS011;65299;46.084;18.762;2023-05-10T04:22:17;9.80;;;6.70;;
76459;SDS011;65299;46.084;18.762;2023-05-10T04:25:17;12.88;;;6.70;;
76459;SDS011;65299;46.084;18.762;2023-05-10T04:28:18;10.90;;;6.90;;
76459;SDS011;65299;46.084;18.762;2023-05-10T04:31:18;10.97;;;6.53;;
76459;SDS011;65299;46.084;18.762;2023-05-10T04:34:20;8.63;;;6.33;;
76459;SDS011;65299;46.084;18.762;2023-05-10T04:37:21;11.07;;;6.90;;
76459;SDS011;65299;46.084;18.762;2023-05-10T04:40:22;13.18;;;6.80;;
76459;SDS011;65299;46.084;18.762;2023-05-10T04:43:23;9.87;;;6.30;;
76459;SDS011;65299;46.084;18.762;2023-05-10T04:46:23;11.18;;;7.07;;
76459;SDS011;65299;46.084;18.762;2023-05-10T04:49:24;13.17;;;7.07;;
76459;SDS011;65299;46.084;18.762;2023-05-10T04:52:24;11.90;;;7.47;;
76459;SDS011;65299;46.084;18.762;2023-05-10T04:55:24;10.70;;;6.43;;
76459;SDS011;65299;46.084;18.762;2023-05-10T04:58:26;9.18;;;6.72;;
76459;SDS011;65299;46.084;18.762;2023-05-10T05:01:26;11.13;;;7.10;;
76459;SDS011;65299;46.084;18.762;2023-05-10T05:04:27;9.07;;;5.70;;
76459;SDS011;65299;46.084;18.762;2023-05-10T05:07:27;9.10;;;6.20;;
76459;SDS011;65299;46.084;18.762;2023-05-10T05:10:28;10.30;;;6.97;;
76459;SDS011;65299;46.084;18.762;2023-05-10T05:13:28;8.30;;;6.00;;
76459;SDS011;65299;46.084;18.762;2023-05-10T05:16:30;8.57;;;5.90;;
76459;SDS011;65299;46.084;18.762;2023-05-10T05:19:31;9.95;;;6.70;;
76459;SDS011;65299;46.084;18.762;2023-05-10T05:22:31;8.75;;;6.20;;
76459;SDS011;65299;46.084;18.762;2023-05-10T05:25:31;9.73;;;6.70;;
76459;SDS011;65299;46.084;18.762;2023-05-10T05:28:32;11.70;;;5.77;;
76459;SDS011;65299;46.084;18.762;2023-05-10T05:31:34;9.38;;;5.70;;
76459;SDS011;65299;46.084;18.762;2023-05-10T05:34:35;12.03;;;5.37;;
76459;SDS011;65299;46.084;18.762;2023-05-10T05:37:35;7.10;;;5.60;;
76459;SDS011;65299;46.084;18.762;2023-05-10T05:40:36;6.33;;;4.93;;
76459;SDS011;65299;46.084;18.762;2023-05-10T05:43:36;8.95;;;5.95;;
76459;SDS011;65299;46.084;18.762;2023-05-10T05:46:37;10.57;;;5.40;;
76459;SDS011;65299;46.084;18.762;2023-05-10T05:49:38;8.07;;;5.47;;
76459;SDS011;65299;46.084;18.762;2023-05-10T05:52:38;9.63;;;5.70;;
76459;SDS011;65299;46.084;18.762;2023-05-10T05:55:38;6.97;;;5.10;;
76459;SDS011;65299;46.084;18.762;2023-05-10T05:58:39;8.07;;;5.10;;
76459;SDS011;65299;46.084;18.762;2023-05-10T06:01:39;10.07;;;5.20;;
76459;SDS011;65299;46.084;18.762;2023-05-10T06:04:40;9.97;;;5.80;;
76459;SDS011;65299;46.084;18.762;2023-05-10T06:07:40;7.07;;;5.40;;
76459;SDS011;65299;46.084;18.762;2023-05-10T06:10:42;11.90;;;5.50;;
76459;SDS011;65299;46.084;18.762;2023-05-10T06:13:42;8.13;;;5.63;;
76459;SDS011;65299;46.084;18.762;2023-05-10T06:16:44;10.20;;;6.00;;
76459;SDS011;65299;46.084;18.762;2023-05-10T06:19:44;7.97;;;4.60;;
76459;SDS011;65299;46.084;18.762;2023-05-10T06:22:45;11.17;;;5.80;;
76459;SDS011;65299;46.084;18.762;2023-05-10T06:25:45;9.20;;;4.97;;
76459;SDS011;65299;46.084;18.762;2023-05-10T06:28:46;9.47;;;6.27;;
76459;SDS011;65299;46.084;18.762;2023-05-10T06:31:47;8.03;;;5.60;;
76459;SDS011;65299;46.084;18.762;2023-05-10T06:34:48;7.80;;;5.60;;
76459;SDS011;65299;46.084;18.762;2023-05-10T06:37:48;9.13;;;5.30;;
76459;SDS011;65299;46.084;18.762;2023-05-10T06:40:49;6.57;;;4.00;;
76459;SDS011;65299;46.084;18.762;2023-05-10T06:43:50;8.95;;;6.45;;
76459;SDS011;65299;46.084;18.762;2023-05-10T06:46:51;7.53;;;5.33;;
76459;SDS011;65299;46.084;18.762;2023-05-10T06:49:52;7.70;;;5.35;;
76459;SDS011;65299;46.084;18.762;2023-05-10T06:52:52;7.77;;;5.33;;
76459;SDS011;65299;46.084;18.762;2023-05-10T06:55:53;7.57;;;4.50;;
76459;SDS011;65299;46.084;18.762;2023-05-10T06:58:53;8.93;;;5.45;;
76459;SDS011;65299;46.084;18.762;2023-05-10T07:01:54;7.53;;;4.70;;
76459;SDS011;65299;46.084;18.762;2023-05-10T07:04:54;8.13;;;5.37;;
76459;SDS011;65299;46.084;18.762;2023-05-10T07:07:55;8.33;;;5.67;;
76459;SDS011;65299;46.084;18.762;2023-05-10T07:11:02;7.50;;;5.18;;
76459;SDS011;65299;46.084;18.762;2023-05-10T07:14:03;6.73;;;4.77;;
76459;SDS011;65299;46.084;18.762;2023-05-10T07:17:04;5.95;;;5.00;;
76459;SDS011;65299;46.084;18.762;2023-05-10T07:20:04;8.23;;;5.07;;
76459;SDS011;65299;46.084;18.762;2023-05-10T07:23:05;8.20;;;5.32;;
76459;SDS011;65299;46.084;18.762;2023-05-10T07:26:06;6.20;;;5.30;;
76459;SDS011;65299;46.084;18.762;2023-05-10T07:29:06;7.00;;;5.63;;
76459;SDS011;65299;46.084;18.762;2023-05-10T07:32:07;7.00;;;4.90;;
76459;SDS011;65299;46.084;18.762;2023-05-10T07:35:08;7.87;;;5.20;;
76459;SDS011;65299;46.084;18.762;2023-05-10T07:38:08;10.57;;;4.85;;
76459;SDS011;65299;46.084;18.762;2023-05-10T07:41:11;5.50;;;4.23;;
76459;SDS011;65299;46.084;18.762;2023-05-10T07:44:12;7.90;;;5.07;;
76459;SDS011;65299;46.084;18.762;2023-05-10T07:47:12;7.10;;;5.23;;
76459;SDS011;65299;46.084;18.762;2023-05-10T07:50:12;6.53;;;4.75;;
76459;SDS011;65299;46.084;18.762;2023-05-10T07:53:13;9.70;;;4.20;;
76459;SDS011;65299;46.084;18.762;2023-05-10T07:56:24;6.67;;;5.20;;
76459;SDS011;65299;46.084;18.762;2023-05-10T07:59:29;6.80;;;5.10;;
76459;SDS011;65299;46.084;18.762;2023-05-10T08:02:29;6.30;;;5.30;;
76459;SDS011;65299;46.084;18.762;2023-05-10T08:05:30;7.40;;;5.10;;
76459;SDS011;65299;46.084;18.762;2023-05-10T08:08:31;8.20;;;5.23;;
76459;SDS011;65299;46.084;18.762;2023-05-10T08:11:31;9.20;;;5.33;;
76459;SDS011;65299;46.084;18.762;2023-05-10T08:14:31;8.98;;;5.13;;
76459;SDS011;65299;46.084;18.762;2023-05-10T08:17:32;6.43;;;4.90;;
76459;SDS011;65299;46.084;18.762;2023-05-10T08:20:32;7.13;;;4.47;;
76459;SDS011;65299;46.084;18.762;2023-05-10T08:23:33;7.80;;;4.53;;
76459;SDS011;65299;46.084;18.762;2023-05-10T08:26:33;6.57;;;4.03;;
76459;SDS011;65299;46.084;18.762;2023-05-10T08:29:34;6.27;;;4.40;;
76459;SDS011;65299;46.084;18.762;2023-05-10T08:32:34;6.27;;;4.07;;
76459;SDS011;65299;46.084;18.762;2023-05-10T08:35:35;5.15;;;4.40;;
76459;SDS011;65299;46.084;18.762;2023-05-10T08:38:35;11.53;;;4.63;;
76459;SDS011;65299;46.084;18.762;2023-05-10T08:41:36;5.32;;;4.47;;
76459;SDS011;65299;46.084;18.762;2023-05-10T08:44:39;5.53;;;4.37;;
76459;SDS011;65299;46.084;18.762;2023-05-10T08:47:40;6.82;;;4.38;;
76459;SDS011;65299;46.084;18.762;2023-05-10T08:50:41;5.97;;;4.68;;
76459;SDS011;65299;46.084;18.762;2023-05-10T08:53:43;6.63;;;5.00;;
76459;SDS011;65299;46.084;18.762;2023-05-10T08:56:44;5.27;;;4.50;;
76459;SDS011;65299;46.084;18.762;2023-05-10T08:59:44;6.93;;;4.85;;
76459;SDS011;65299;46.084;18.762;2023-05-10T09:02:45;7.80;;;4.47;;
76459;SDS011;65299;46.084;18.762;2023-05-10T09:05:46;7.78;;;4.65;;
76459;SDS011;65299;46.084;18.762;2023-05-10T09:08:48;9.10;;;4.63;;
76459;SDS011;65299;46.084;18.762;2023-05-10T09:11:49;6.67;;;4.20;;
76459;SDS011;65299;46.084;18.762;2023-05-10T09:14:50;5.13;;;4.03;;
76459;SDS011;65299;46.084;18.762;2023-05-10T09:17:52;4.95;;;4.13;;
76459;SDS011;65299;46.084;18.762;2023-05-10T09:20:54;11.25;;;4.50;;
76459;SDS011;65299;46.084;18.762;2023-05-10T09:23:54;9.87;;;5.40;;
76459;SDS011;65299;46.084;18.762;2023-05-10T09:26:56;7.00;;;4.80;;
76459;SDS011;65299;46.084;18.762;2023-05-10T09:29:57;6.53;;;4.00;;
76459;SDS011;65299;46.084;18.762;2023-05-10T09:32:58;5.40;;;4.03;;
76459;SDS011;65299;46.084;18.762;2023-05-10T09:36:06;6.05;;;4.13;;
76459;SDS011;65299;46.084;18.762;2023-05-10T09:39:08;4.70;;;3.70;;
76459;SDS011;65299;46.084;18.762;2023-05-10T09:42:08;4.33;;;3.90;;
76459;SDS011;65299;46.084;18.762;2023-05-10T09:45:09;7.05;;;3.90;;
76459;SDS011;65299;46.084;18.762;2023-05-10T09:48:10;4.67;;;3.60;;
76459;SDS011;65299;46.084;18.762;2023-05-10T09:51:10;8.05;;;4.38;;
76459;SDS011;65299;46.084;18.762;2023-05-10T09:54:19;10.87;;;4.07;;
76459;SDS011;65299;46.084;18.762;2023-05-10T09:57:20;5.88;;;3.92;;
76459;SDS011;65299;46.084;18.762;2023-05-10T10:00:22;6.47;;;3.97;;
76459;SDS011;65299;46.084;18.762;2023-05-10T10:03:23;5.30;;;3.70;;
76459;SDS011;65299;46.084;18.762;2023-05-10T10:06:24;5.63;;;4.03;;
76459;SDS011;65299;46.084;18.762;2023-05-10T10:09:25;9.45;;;3.72;;
76459;SDS011;65299;46.084;18.762;2023-05-10T10:12:26;6.97;;;3.23;;
76459;SDS011;65299;46.084;18.762;2023-05-10T10:15:26;6.35;;;3.28;;
76459;SDS011;65299;46.084;18.762;2023-05-10T10:18:27;5.20;;;3.50;;
76459;SDS011;65299;46.084;18.762;2023-05-10T10:21:29;7.43;;;3.55;;
76459;SDS011;65299;46.084;18.762;2023-05-10T10:24:30;6.82;;;2.78;;
76459;SDS011;65299;46.084;18.762;2023-05-10T10:30:54;7.10;;;3.60;;
76459;SDS011;65299;46.084;18.762;2023-05-10T10:34:01;4.38;;;3.20;;
76459;SDS011;65299;46.084;18.762;2023-05-10T10:37:05;4.43;;;3.40;;
76459;SDS011;65299;46.084;18.762;2023-05-10T10:40:26;4.97;;;2.50;;
76459;SDS011;65299;46.084;18.762;2023-05-10T10:43:28;6.43;;;2.90;;
76459;SDS011;65299;46.084;18.762;2023-05-10T10:46:28;3.15;;;2.72;;
76459;SDS011;65299;46.084;18.762;2023-05-10T10:49:32;6.17;;;2.83;;
76459;SDS011;65299;46.084;18.762;2023-05-10T10:52:37;2.92;;;2.63;;
76459;SDS011;65299;46.084;18.762;2023-05-10T10:55:47;3.95;;;3.40;;
76459;SDS011;65299;46.084;18.762;2023-05-10T10:58:51;3.22;;;2.90;;
76459;SDS011;65299;46.084;18.762;2023-05-10T11:01:53;5.53;;;3.30;;
76459;SDS011;65299;46.084;18.762;2023-05-10T11:04:53;3.15;;;2.85;;
76459;SDS011;65299;46.084;18.762;2023-05-10T11:07:57;3.53;;;2.87;;
76459;SDS011;65299;46.084;18.762;2023-05-10T11:14:03;5.60;;;2.67;;
76459;SDS011;65299;46.084;18.762;2023-05-10T11:17:24;5.55;;;3.15;;
76459;SDS011;65299;46.084;18.762;2023-05-10T11:20:28;6.57;;;2.57;;
76459;SDS011;65299;46.084;18.762;2023-05-10T11:26:39;5.45;;;2.47;;
76459;SDS011;65299;46.084;18.762;2023-05-10T11:29:39;7.37;;;2.50;;
76459;SDS011;65299;46.084;18.762;2023-05-10T11:32:40;2.95;;;2.65;;
76459;SDS011;65299;46.084;18.762;2023-05-10T11:35:41;4.73;;;2.97;;
76459;SDS011;65299;46.084;18.762;2023-05-10T11:38:41;3.53;;;2.70;;
76459;SDS011;65299;46.084;18.762;2023-05-10T11:41:42;3.35;;;2.63;;
76459;SDS011;65299;46.084;18.762;2023-05-10T11:44:45;3.13;;;2.83;;
76459;SDS011;65299;46.084;18.762;2023-05-10T11:47:48;3.90;;;2.53;;
76459;SDS011;65299;46.084;18.762;2023-05-10T11:50:49;12.70;;;3.42;;
76459;SDS011;65299;46.084;18.762;2023-05-10T11:53:52;4.65;;;2.80;;
76459;SDS011;65299;46.084;18.762;2023-05-10T11:56:54;3.93;;;1.93;;
76459;SDS011;65299;46.084;18.762;2023-05-10T11:59:54;3.80;;;2.30;;
76459;SDS011;65299;46.084;18.762;2023-05-10T12:02:56;3.30;;;2.70;;
76459;SDS011;65299;46.084;18.762;2023-05-10T12:05:57;2.72;;;2.40;;
76459;SDS011;65299;46.084;18.762;2023-05-10T12:08:59;6.47;;;2.72;;
76459;SDS011;65299;46.084;18.762;2023-05-10T12:12:05;5.07;;;2.58;;
76459;SDS011;65299;46.084;18.762;2023-05-10T12:15:05;4.70;;;2.53;;
76459;SDS011;65299;46.084;18.762;2023-05-10T12:18:22;3.92;;;2.72;;
76459;SDS011;65299;46.084;18.762;2023-05-10T12:21:25;4.93;;;2.80;;
76459;SDS011;65299;46.084;18.762;2023-05-10T12:24:27;4.00;;;2.85;;
76459;SDS011;65299;46.084;18.762;2023-05-10T12:27:31;5.37;;;3.07;;
76459;SDS011;65299;46.084;18.762;2023-05-10T12:30:32;3.15;;;2.85;;
76459;SDS011;65299;46.084;18.762;2023-05-10T12:33:38;5.37;;;2.53;;
76459;SDS011;65299;46.084;18.762;2023-05-10T12:36:45;5.75;;;2.30;;
76459;SDS011;65299;46.084;18.762;2023-05-10T12:39:45;4.27;;;2.67;;
76459;SDS011;65299;46.084;18.762;2023-05-10T12:42:46;11.90;;;3.00;;
76459;SDS011;65299;46.084;18.762;2023-05-10T12:45:46;18.87;;;2.37;;
76459;SDS011;65299;46.084;18.762;2023-05-10T12:48:48;5.13;;;2.20;;
76459;SDS011;65299;46.084;18.762;2023-05-10T12:51:54;6.13;;;2.30;;
76459;SDS011;65299;46.084;18.762;2023-05-10T12:54:55;6.73;;;2.40;;
76459;SDS011;65299;46.084;18.762;2023-05-10T12:57:55;2.53;;;2.23;;
76459;SDS011;65299;46.084;18.762;2023-05-10T13:00:57;5.50;;;1.70;;
76459;SDS011;65299;46.084;18.762;2023-05-10T13:03:58;7.83;;;2.07;;
76459;SDS011;65299;46.084;18.762;2023-05-10T13:07:00;6.65;;;2.08;;
76459;SDS011;65299;46.084;18.762;2023-05-10T13:10:00;4.00;;;2.00;;
76459;SDS011;65299;46.084;18.762;2023-05-10T13:13:01;6.03;;;2.08;;
76459;SDS011;65299;46.084;18.762;2023-05-10T13:16:02;5.82;;;1.90;;
76459;SDS011;65299;46.084;18.762;2023-05-10T13:19:03;5.20;;;1.90;;
76459;SDS011;65299;46.084;18.762;2023-05-10T13:22:03;1.90;;;1.60;;
76459;SDS011;65299;46.084;18.762;2023-05-10T13:25:04;3.63;;;1.88;;
76459;SDS011;65299;46.084;18.762;2023-05-10T13:28:04;6.83;;;2.20;;
76459;SDS011;65299;46.084;18.762;2023-05-10T13:31:06;4.13;;;2.20;;
76459;SDS011;65299;46.084;18.762;2023-05-10T13:34:07;5.90;;;1.80;;
76459;SDS011;65299;46.084;18.762;2023-05-10T13:37:07;5.90;;;2.37;;
76459;SDS011;65299;46.084;18.762;2023-05-10T13:40:08;4.50;;;1.77;;
76459;SDS011;65299;46.084;18.762;2023-05-10T13:43:08;6.30;;;2.20;;
76459;SDS011;65299;46.084;18.762;2023-05-10T13:46:09;4.77;;;2.10;;
76459;SDS011;65299;46.084;18.762;2023-05-10T13:49:09;3.37;;;2.37;;
76459;SDS011;65299;46.084;18.762;2023-05-10T13:52:10;6.93;;;2.03;;
76459;SDS011;65299;46.084;18.762;2023-05-10T13:55:12;3.83;;;2.00;;
76459;SDS011;65299;46.084;18.762;2023-05-10T13:58:13;5.35;;;2.03;;
76459;SDS011;65299;46.084;18.762;2023-05-10T14:01:13;4.63;;;1.80;;
76459;SDS011;65299;46.084;18.762;2023-05-10T14:04:14;10.13;;;2.30;;
76459;SDS011;65299;46.084;18.762;2023-05-10T14:07:14;3.63;;;1.90;;
76459;SDS011;65299;46.084;18.762;2023-05-10T14:10:15;3.38;;;1.67;;
76459;SDS011;65299;46.084;18.762;2023-05-10T14:13:15;2.10;;;1.70;;
76459;SDS011;65299;46.084;18.762;2023-05-10T14:16:16;6.37;;;1.80;;
76459;SDS011;65299;46.084;18.762;2023-05-10T14:19:16;5.90;;;2.10;;
76459;SDS011;65299;46.084;18.762;2023-05-10T14:22:17;2.70;;;1.80;;
76459;SDS011;65299;46.084;18.762;2023-05-10T14:25:18;4.05;;;2.13;;
76459;SDS011;65299;46.084;18.762;2023-05-10T14:28:18;1.83;;;1.30;;
76459;SDS011;65299;46.084;18.762;2023-05-10T14:31:19;4.50;;;1.60;;
76459;SDS011;65299;46.084;18.762;2023-05-10T14:34:20;6.53;;;1.65;;
76459;SDS011;65299;46.084;18.762;2023-05-10T14:37:21;3.70;;;1.70;;
76459;SDS011;65299;46.084;18.762;2023-05-10T14:40:21;4.17;;;1.80;;
76459;SDS011;65299;46.084;18.762;2023-05-10T14:43:21;7.47;;;2.27;;
76459;SDS011;65299;46.084;18.762;2023-05-10T14:46:22;5.70;;;2.30;;
76459;SDS011;65299;46.084;18.762;2023-05-10T14:49:22;2.42;;;2.22;;
76459;SDS011;65299;46.084;18.762;2023-05-10T14:52:25;7.17;;;2.57;;
76459;SDS011;65299;46.084;18.762;2023-05-10T14:55:25;3.60;;;2.60;;
76459;SDS011;65299;46.084;18.762;2023-05-10T14:58:26;6.60;;;2.73;;
76459;SDS011;65299;46.084;18.762;2023-05-10T15:01:27;10.30;;;1.52;;
76459;SDS011;65299;46.084;18.762;2023-05-10T15:04:27;2.80;;;2.20;;
76459;SDS011;65299;46.084;18.762;2023-05-10T15:07:28;4.80;;;1.90;;
76459;SDS011;65299;46.084;18.762;2023-05-10T15:10:28;4.40;;;2.20;;
76459;SDS011;65299;46.084;18.762;2023-05-10T15:13:28;3.53;;;1.95;;
76459;SDS011;65299;46.084;18.762;2023-05-10T15:16:29;4.10;;;2.07;;
76459;SDS011;65299;46.084;18.762;2023-05-10T15:19:30;2.30;;;2.10;;
76459;SDS011;65299;46.084;18.762;2023-05-10T15:22:30;3.67;;;2.10;;
76459;SDS011;65299;46.084;18.762;2023-05-10T15:25:31;4.13;;;2.13;;
76459;SDS011;65299;46.084;18.762;2023-05-10T15:28:34;2.83;;;2.40;;
76459;SDS011;65299;46.084;18.762;2023-05-10T15:31:35;3.17;;;2.33;;
76459;SDS011;65299;46.084;18.762;2023-05-10T15:34:35;2.53;;;1.70;;
76459;SDS011;65299;46.084;18.762;2023-05-10T15:37:36;3.80;;;1.70;;
76459;SDS011;65299;46.084;18.762;2023-05-10T15:40:37;3.60;;;1.83;;
76459;SDS011;65299;46.084;18.762;2023-05-10T15:43:38;5.83;;;2.30;;
76459;SDS011;65299;46.084;18.762;2023-05-10T15:46:38;3.83;;;2.05;;
76459;SDS011;65299;46.084;18.762;2023-05-10T15:49:38;9.63;;;2.70;;
76459;SDS011;65299;46.084;18.762;2023-05-10T15:52:39;6.63;;;2.00;;
76459;SDS011;65299;46.084;18.762;2023-05-10T15:55:40;4.00;;;2.20;;
76459;SDS011;65299;46.084;18.762;2023-05-10T15:58:40;3.33;;;2.10;;
76459;SDS011;65299;46.084;18.762;2023-05-10T16:01:42;5.90;;;2.20;;
76459;SDS011;65299;46.084;18.762;2023-05-10T16:04:43;9.47;;;2.20;;
76459;SDS011;65299;46.084;18.762;2023-05-10T16:07:43;2.73;;;2.43;;
76459;SDS011;65299;46.084;18.762;2023-05-10T16:10:44;3.42;;;2.30;;
76459;SDS011;65299;46.084;18.762;2023-05-10T16:13:44;2.53;;;2.07;;
76459;SDS011;65299;46.084;18.762;2023-05-10T16:16:45;4.53;;;2.05;;
76459;SDS011;65299;46.084;18.762;2023-05-10T16:19:46;5.53;;;2.30;;
76459;SDS011;65299;46.084;18.762;2023-05-10T16:22:46;4.88;;;3.13;;
76459;SDS011;65299;46.084;18.762;2023-05-10T16:25:47;5.10;;;1.90;;
76459;SDS011;65299;46.084;18.762;2023-05-10T16:28:47;2.20;;;1.90;;
76459;SDS011;65299;46.084;18.762;2023-05-10T16:31:48;2.50;;;1.90;;
76459;SDS011;65299;46.084;18.762;2023-05-10T16:34:48;4.43;;;2.50;;
76459;SDS011;65299;46.084;18.762;2023-05-10T16:37:49;7.27;;;1.97;;
76459;SDS011;65299;46.084;18.762;2023-05-10T16:40:49;6.70;;;2.17;;
76459;SDS011;65299;46.084;18.762;2023-05-10T16:43:50;4.85;;;1.90;;
76459;SDS011;65299;46.084;18.762;2023-05-10T16:46:50;3.13;;;1.67;;
76459;SDS011;65299;46.084;18.762;2023-05-10T16:49:52;7.50;;;2.08;;
76459;SDS011;65299;46.084;18.762;2023-05-10T16:52:52;4.17;;;1.77;;
76459;SDS011;65299;46.084;18.762;2023-05-10T16:55:52;4.40;;;2.10;;
76459;SDS011;65299;46.084;18.762;2023-05-10T16:58:53;3.67;;;1.80;;
76459;SDS011;65299;46.084;18.762;2023-05-10T17:01:53;4.78;;;1.90;;
76459;SDS011;65299;46.084;18.762;2023-05-10T17:04:54;2.00;;;1.80;;
76459;SDS011;65299;46.084;18.762;2023-05-10T17:07:55;6.47;;;1.67;;
76459;SDS011;65299;46.084;18.762;2023-05-10T17:10:55;5.00;;;1.90;;
76459;SDS011;65299;46.084;18.762;2023-05-10T17:13:57;2.90;;;1.90;;
76459;SDS011;65299;46.084;18.762;2023-05-10T17:16:58;3.15;;;1.95;;
76459;SDS011;65299;46.084;18.762;2023-05-10T17:19:58;6.17;;;1.90;;
76459;SDS011;65299;46.084;18.762;2023-05-10T17:22:59;1.83;;;1.33;;
76459;SDS011;65299;46.084;18.762;2023-05-10T17:26:04;6.18;;;1.50;;
76459;SDS011;65299;46.084;18.762;2023-05-10T17:29:05;1.90;;;1.70;;
76459;SDS011;65299;46.084;18.762;2023-05-10T17:32:06;2.47;;;1.40;;
76459;SDS011;65299;46.084;18.762;2023-05-10T17:35:08;2.00;;;1.38;;
76459;SDS011;65299;46.084;18.762;2023-05-10T17:38:08;5.37;;;1.97;;
76459;SDS011;65299;46.084;18.762;2023-05-10T17:41:09;3.03;;;1.60;;
76459;SDS011;65299;46.084;18.762;2023-05-10T17:44:10;2.60;;;1.43;;
76459;SDS011;65299;46.084;18.762;2023-05-10T17:47:12;1.92;;;1.73;;
76459;SDS011;65299;46.084;18.762;2023-05-10T17:50:12;4.93;;;2.10;;
76459;SDS011;65299;46.084;18.762;2023-05-10T17:53:12;4.57;;;1.97;;
76459;SDS011;65299;46.084;18.762;2023-05-10T17:56:13;8.50;;;1.80;;
76459;SDS011;65299;46.084;18.762;2023-05-10T17:59:13;3.13;;;1.60;;
76459;SDS011;65299;46.084;18.762;2023-05-10T18:02:14;2.73;;;1.53;;
76459;SDS011;65299;46.084;18.762;2023-05-10T18:05:14;3.40;;;1.43;;
76459;SDS011;65299;46.084;18.762;2023-05-10T18:08:15;3.05;;;1.50;;
76459;SDS011;65299;46.084;18.762;2023-05-10T18:11:21;3.35;;;1.85;;
76459;SDS011;65299;46.084;18.762;2023-05-10T18:14:21;3.10;;;1.80;;
76459;SDS011;65299;46.084;18.762;2023-05-10T18:17:22;6.03;;;1.60;;
76459;SDS011;65299;46.084;18.762;2023-05-10T18:20:22;2.97;;;1.47;;